createdAt,value
2017-11-01T04:31:23.518Z,14.55
2017-11-01T04:33:51.202Z,16.35
2017-11-01T04:36:19.550Z,17.45
2017-11-01T04:38:47.177Z,21.00
2017-11-01T04:41:14.754Z,15.00
2017-11-01T04:43:42.330Z,24.27
2017-11-01T04:46:10.015Z,20.50
2017-11-01T04:48:38.450Z,33.38
2017-11-01T04:51:10.958Z,19.62
2017-11-01T04:53:38.542Z,18.67
2017-11-01T04:56:06.118Z,16.00
2017-11-01T04:58:36.778Z,21.75
2017-11-01T05:01:04.379Z,27.23
2017-11-01T05:03:32.717Z,20.25
2017-11-01T05:06:00.412Z,17.98
2017-11-01T05:08:34.481Z,16.08
2017-11-01T05:11:07.802Z,16.73
2017-11-01T05:13:35.387Z,19.37
2017-11-01T05:16:03.768Z,20.73
2017-11-01T05:18:31.417Z,21.00
2017-11-01T05:20:59.753Z,17.10
2017-11-01T05:23:27.348Z,20.42
2017-11-01T05:25:55.732Z,17.17
2017-11-01T05:28:24.073Z,18.10
2017-11-01T05:30:51.766Z,22.60
2017-11-01T05:33:20.142Z,28.45
2017-11-01T05:35:48.518Z,14.45
2017-11-01T05:38:16.861Z,19.77
2017-11-01T05:40:44.478Z,16.12
2017-11-01T05:43:12.113Z,21.90
2017-11-01T05:45:40.466Z,26.15
2017-11-01T05:48:08.154Z,22.17
2017-11-01T05:50:36.497Z,20.23
2017-11-01T05:53:04.078Z,23.73
2017-11-01T05:55:31.702Z,24.67
2017-11-01T05:57:59.285Z,23.55
2017-11-01T06:00:26.966Z,24.83
2017-11-01T06:02:55.367Z,19.67
2017-11-01T06:05:23.002Z,26.62
2017-11-01T06:07:51.352Z,23.77
2017-11-01T06:10:19.046Z,26.95
2017-11-01T06:12:47.418Z,31.60
2017-11-01T06:15:15.798Z,24.83
2017-11-01T06:17:44.145Z,24.58
2017-11-01T06:20:11.725Z,32.70
2017-11-01T06:22:39.354Z,22.62
2017-11-01T06:25:06.934Z,26.92
2017-11-01T06:27:34.609Z,28.67
2017-11-01T06:30:03.042Z,27.42
2017-11-01T06:32:30.621Z,26.87
2017-11-01T06:34:58.312Z,40.53
2017-11-01T06:37:26.710Z,35.17
2017-11-01T06:39:54.298Z,24.60
2017-11-01T06:42:21.877Z,25.08
2017-11-01T06:44:49.477Z,33.60
2017-11-01T06:47:17.817Z,25.83
2017-11-01T06:49:45.449Z,25.88
2017-11-01T06:52:13.032Z,29.23
2017-11-01T06:54:40.621Z,32.83
2017-11-01T06:57:09.024Z,34.47
2017-11-01T06:59:36.618Z,26.42
2017-11-01T07:02:04.264Z,29.83
2017-11-01T07:04:31.865Z,41.97
2017-11-01T07:07:00.278Z,31.10
2017-11-01T07:09:27.863Z,34.65
2017-11-01T07:11:55.509Z,29.73
2017-11-01T07:14:23.130Z,25.25
2017-11-01T07:16:51.510Z,29.83
2017-11-01T07:19:19.906Z,28.98
2017-11-01T07:21:47.494Z,34.95
2017-11-01T07:24:15.081Z,27.58
2017-11-01T07:26:42.690Z,29.25
2017-11-01T07:29:10.274Z,33.97
2017-11-01T07:31:37.886Z,34.15
2017-11-01T07:34:06.254Z,36.85
2017-11-01T07:36:34.638Z,39.15
2017-11-01T07:39:02.989Z,45.22
2017-11-01T07:41:31.522Z,32.78
2017-11-01T07:43:59.102Z,36.47
2017-11-01T07:46:26.682Z,34.80
2017-11-01T07:48:54.286Z,37.28
2017-11-01T07:51:21.898Z,34.13
2017-11-01T07:53:49.491Z,27.90
2017-11-01T07:56:17.887Z,28.40
2017-11-01T07:58:45.461Z,31.00
2017-11-01T08:01:13.132Z,30.80
2017-11-01T08:03:40.774Z,32.00
2017-11-01T08:06:08.362Z,35.35
2017-11-01T08:08:35.942Z,41.30
2017-11-01T08:11:03.549Z,36.95
2017-11-01T08:13:31.128Z,32.33
2017-11-01T08:15:58.745Z,32.60
2017-11-01T08:18:27.101Z,30.85
2017-11-01T08:20:54.677Z,30.52
2017-11-01T08:23:23.070Z,37.80
2017-11-01T08:25:50.650Z,34.75
2017-11-01T08:28:18.234Z,31.48
2017-11-01T08:30:45.862Z,33.72
2017-11-01T08:33:13.443Z,33.95
2017-11-01T08:35:41.026Z,26.15
2017-11-01T08:38:08.658Z,34.10
2017-11-01T08:40:36.234Z,22.45
2017-11-01T08:43:03.813Z,31.52
2017-11-01T08:45:31.450Z,30.77
2017-11-01T08:47:59.030Z,25.90
2017-11-01T08:50:26.613Z,26.83
2017-11-01T08:52:54.218Z,23.23
2017-11-01T08:55:21.854Z,28.62
2017-11-01T08:57:49.438Z,30.00
2017-11-01T09:00:17.023Z,26.37
2017-11-01T09:02:44.657Z,25.75
2017-11-01T09:05:12.233Z,30.02
2017-11-01T09:07:39.926Z,23.05
2017-11-01T09:10:08.322Z,20.27
2017-11-01T09:12:35.902Z,28.05
2017-11-01T09:15:03.486Z,31.60
2017-11-01T09:17:31.105Z,30.73
2017-11-01T09:19:58.694Z,25.00
2017-11-01T09:22:26.274Z,29.95
2017-11-01T09:24:53.877Z,31.00
2017-11-01T09:27:21.454Z,31.80
2017-11-01T09:29:49.066Z,25.05
2017-11-01T09:32:17.414Z,35.85
2017-11-01T09:34:44.998Z,25.80
2017-11-01T09:37:13.369Z,27.10
2017-11-01T09:39:41.718Z,33.80
2017-11-01T09:42:09.343Z,35.67
2017-11-01T09:44:36.927Z,29.83
2017-11-01T09:47:04.501Z,37.35
2017-11-01T09:49:32.147Z,40.80
2017-11-01T09:51:59.733Z,38.70
2017-11-01T09:54:27.313Z,32.45
2017-11-01T09:56:55.714Z,38.08
2017-11-01T09:59:23.294Z,33.75
2017-11-01T10:01:50.883Z,34.20
2017-11-01T10:04:18.498Z,34.95
2017-11-01T10:06:46.078Z,41.25
2017-11-01T10:09:13.662Z,37.72
2017-11-01T10:11:41.269Z,35.72
2017-11-01T10:14:08.846Z,46.55
2017-11-01T10:16:36.463Z,41.85
2017-11-01T10:19:04.818Z,36.22
2017-11-01T10:21:32.401Z,36.58
2017-11-01T10:24:00.794Z,35.65
2017-11-01T10:26:28.373Z,42.15
2017-11-01T10:28:55.954Z,37.72
2017-11-01T10:31:23.584Z,33.47
2017-11-01T10:33:51.168Z,38.92
2017-11-01T10:36:18.755Z,33.75
2017-11-01T10:38:47.158Z,40.10
2017-11-01T10:41:14.742Z,38.95
2017-11-01T10:43:42.323Z,41.88
2017-11-01T10:46:09.926Z,41.50
2017-11-01T10:48:38.271Z,46.55
2017-11-01T10:51:05.918Z,63.00
2017-11-01T10:53:33.507Z,42.70
2017-11-01T10:56:01.106Z,40.88
2017-11-01T10:58:28.751Z,46.25
2017-11-01T11:00:56.330Z,44.55
2017-11-01T11:03:23.917Z,42.80
2017-11-01T11:05:51.524Z,43.55
2017-11-01T11:08:19.129Z,52.45
2017-11-01T11:10:46.719Z,52.10
2017-11-01T11:13:15.114Z,49.35
2017-11-01T11:15:43.469Z,56.53
2017-11-01T11:18:11.907Z,51.05
2017-11-01T11:20:39.527Z,47.58
2017-11-01T11:23:07.873Z,48.22
2017-11-01T11:25:35.462Z,58.58
2017-11-01T11:28:03.882Z,49.13
2017-11-01T11:30:31.466Z,46.20
2017-11-01T11:32:59.051Z,42.80
2017-11-01T11:35:27.426Z,39.80
2017-11-01T11:37:55.774Z,43.00
2017-11-01T11:40:23.349Z,40.28
2017-11-01T11:42:50.968Z,40.08
2017-11-01T11:45:18.551Z,39.55
2017-11-01T11:47:46.138Z,41.08
2017-11-01T11:50:14.530Z,43.10
2017-11-01T11:52:42.105Z,50.90
2017-11-01T11:55:09.683Z,46.37
2017-11-01T11:57:37.322Z,42.53
2017-11-01T12:00:04.902Z,44.85
2017-11-01T12:02:32.487Z,38.90
2017-11-01T12:05:00.130Z,41.60
2017-11-01T12:07:27.722Z,39.55
2017-11-01T12:09:56.074Z,43.13
2017-11-01T12:12:23.710Z,35.60
2017-11-01T12:14:51.295Z,39.95
2017-11-01T12:17:18.933Z,36.80
2017-11-01T12:19:47.345Z,34.00
2017-11-01T12:22:14.925Z,37.45
2017-11-01T12:24:43.271Z,33.17
2017-11-01T12:27:10.910Z,37.55
2017-11-01T12:29:38.506Z,38.05
2017-11-01T12:32:06.087Z,35.05
2017-11-01T12:34:33.718Z,36.03
2017-11-01T12:37:01.293Z,34.70
2017-11-01T12:39:29.642Z,32.15
2017-11-01T12:41:57.251Z,34.08
2017-11-01T12:44:24.838Z,39.55
2017-11-01T12:46:52.417Z,34.45
2017-11-01T12:49:20.056Z,31.83
2017-11-01T12:51:47.637Z,34.83
2017-11-01T12:54:15.233Z,34.42
2017-11-01T12:56:43.609Z,35.42
2017-11-01T12:59:11.975Z,41.53
2017-11-01T13:01:40.318Z,35.83
2017-11-01T13:04:07.979Z,36.50
2017-11-01T13:06:35.554Z,38.85
2017-11-01T13:09:03.138Z,39.83
2017-11-01T13:11:31.588Z,44.67
2017-11-01T13:13:59.186Z,33.92
2017-11-01T13:16:26.778Z,35.33
2017-11-01T13:18:54.398Z,35.90
2017-11-01T13:21:22.821Z,38.40
2017-11-01T13:23:50.475Z,39.10
2017-11-01T13:26:18.086Z,36.03
2017-11-01T13:28:46.635Z,37.55
2017-11-01T13:31:14.233Z,41.92
2017-11-01T13:33:42.578Z,36.65
2017-11-01T13:36:10.154Z,36.63
2017-11-01T13:38:37.772Z,34.80
2017-11-01T13:41:05.359Z,38.13
2017-11-01T13:43:32.942Z,36.55
2017-11-01T13:46:01.338Z,31.77
2017-11-01T13:48:28.921Z,35.55
2017-11-01T13:50:56.526Z,35.63
2017-11-01T13:53:24.921Z,45.40
2017-11-01T13:55:53.269Z,32.70
2017-11-01T13:58:20.846Z,33.88
2017-11-01T14:00:49.254Z,29.95
2017-11-01T14:03:16.840Z,33.63
2017-11-01T14:05:44.414Z,34.92
2017-11-01T14:08:12.021Z,34.13
2017-11-01T14:10:39.602Z,40.25
2017-11-01T14:13:07.235Z,34.70
2017-11-01T14:15:34.823Z,35.35
2017-11-01T14:18:02.399Z,32.08
2017-11-01T14:20:30.026Z,34.22
2017-11-01T14:22:57.610Z,37.28
2017-11-01T14:25:25.193Z,33.17
2017-11-01T14:27:52.793Z,32.92
2017-11-01T14:30:20.374Z,32.33
2017-11-01T14:32:48.009Z,31.62
2017-11-01T14:35:15.596Z,32.40
2017-11-01T14:37:43.179Z,39.67
2017-11-01T14:40:10.807Z,34.10
2017-11-01T14:42:38.381Z,35.60
2017-11-01T14:45:05.962Z,40.12
2017-11-01T14:47:33.574Z,35.28
2017-11-01T14:50:01.155Z,44.35
2017-11-01T14:52:29.511Z,34.25
2017-11-01T14:54:57.180Z,33.53
2017-11-01T14:57:24.761Z,30.30
2017-11-01T14:59:52.342Z,44.72
2017-11-01T15:02:19.943Z,39.80
2017-11-01T15:04:47.532Z,35.22
2017-11-01T15:07:15.120Z,39.35
2017-11-01T15:09:42.746Z,35.50
2017-11-01T15:12:10.327Z,35.72
2017-11-01T15:14:37.922Z,35.88
2017-11-01T15:17:06.296Z,36.90
2017-11-01T15:19:34.641Z,41.85
2017-11-01T15:22:02.221Z,36.47
2017-11-01T15:24:30.638Z,40.00
2017-11-01T15:26:58.227Z,37.65
2017-11-01T15:29:25.811Z,38.38
2017-11-01T15:31:53.437Z,40.00
2017-11-01T15:34:21.018Z,39.67
2017-11-01T15:36:48.598Z,44.78
2017-11-01T15:39:16.994Z,40.25
2017-11-01T15:41:53.465Z,45.80
2017-11-01T15:44:21.101Z,40.30
2017-11-01T15:46:49.447Z,44.88
2017-11-01T15:49:17.036Z,42.22
2017-11-01T15:51:45.429Z,43.80
2017-11-01T15:54:13.009Z,41.17
2017-11-01T15:56:40.595Z,43.80
2017-11-01T15:59:08.229Z,45.22
2017-11-01T16:01:35.823Z,38.30
2017-11-01T16:04:03.411Z,42.33
2017-11-01T16:06:31.798Z,50.22
2017-11-01T16:09:00.147Z,50.42
2017-11-01T16:11:27.740Z,45.42
2017-11-01T16:13:55.535Z,38.58
2017-11-01T16:16:23.138Z,52.25
2017-11-01T16:18:51.495Z,58.05
2017-11-01T16:21:19.129Z,61.20
2017-11-01T16:23:46.701Z,53.63
2017-11-01T16:26:14.282Z,51.42
2017-11-01T16:28:42.011Z,47.28
2017-11-01T16:31:09.590Z,62.35
2017-11-01T16:33:37.171Z,54.97
2017-11-01T16:36:05.572Z,56.05
2017-11-01T16:38:33.158Z,54.03
2017-11-01T16:41:00.746Z,61.37
2017-11-01T16:43:28.847Z,52.72
2017-11-01T16:45:57.206Z,50.17
2017-11-01T16:48:24.790Z,58.95
2017-11-01T16:50:53.206Z,63.20
2017-11-01T16:53:20.782Z,60.95
2017-11-01T16:55:48.361Z,49.75
2017-11-01T16:58:15.987Z,52.20
2017-11-01T17:00:43.667Z,60.03
2017-11-01T17:03:11.330Z,49.10
2017-11-01T17:05:39.046Z,49.53
2017-11-01T17:08:06.622Z,45.78
2017-11-01T17:10:34.222Z,48.28
2017-11-01T17:13:01.848Z,58.80
2017-11-01T17:15:29.434Z,61.20
2017-11-01T17:17:57.059Z,49.25
2017-11-01T17:20:24.640Z,62.15
2017-11-01T17:22:52.233Z,55.53
2017-11-01T17:25:20.623Z,53.63
2017-11-01T17:27:48.214Z,45.83
2017-11-01T17:30:15.800Z,47.30
2017-11-01T17:32:43.506Z,46.63
2017-11-01T17:35:11.108Z,45.12
2017-11-01T17:37:40.217Z,49.60
2017-11-01T17:40:07.842Z,44.95
2017-11-01T17:42:35.432Z,48.20
2017-11-01T17:45:03.029Z,57.03
2017-11-01T17:47:31.442Z,49.33
2017-11-01T17:49:59.022Z,53.58
2017-11-01T17:52:26.605Z,48.83
2017-11-01T17:54:54.234Z,53.03
2017-11-01T17:57:21.818Z,61.13
2017-11-01T17:59:49.398Z,52.83
2017-11-01T18:02:17.798Z,58.53
2017-11-01T18:04:45.375Z,50.05
2017-11-01T18:07:12.962Z,58.28
2017-11-01T18:09:40.590Z,50.72
2017-11-01T18:12:08.168Z,58.30
2017-11-01T18:14:35.747Z,55.83
2017-11-01T18:17:03.361Z,61.42
2017-11-01T18:19:30.946Z,66.78
2017-11-01T18:21:58.528Z,49.60
2017-11-01T18:24:26.151Z,54.53
2017-11-01T18:26:53.739Z,53.85
2017-11-01T18:29:21.314Z,58.58
2017-11-01T18:31:49.686Z,60.95
2017-11-01T18:34:17.266Z,61.22
2017-11-01T18:36:44.922Z,53.15
2017-11-01T18:39:13.274Z,51.85
2017-11-01T18:41:40.862Z,55.38
2017-11-01T18:44:08.486Z,64.75
2017-11-01T18:46:36.070Z,54.67
2017-11-01T18:49:04.414Z,53.42
2017-11-01T18:51:32.032Z,50.40
2017-11-01T18:53:59.623Z,54.47
2017-11-01T18:56:27.202Z,54.60
2017-11-01T18:58:54.838Z,51.17
2017-11-01T19:01:22.422Z,49.08
2017-11-01T19:03:50.003Z,66.95
2017-11-01T19:06:18.402Z,60.85
2017-11-01T19:08:45.987Z,78.65
2017-11-01T19:11:13.571Z,74.57
2017-11-01T19:13:41.203Z,77.40
2017-11-01T19:16:08.801Z,62.15
2017-11-01T19:18:36.384Z,59.72
2017-11-01T19:21:04.007Z,65.55
2017-11-01T19:23:31.594Z,50.33
2017-11-01T19:26:00.017Z,61.47
2017-11-01T19:28:27.626Z,58.05
2017-11-01T19:30:55.975Z,55.22
2017-11-01T19:33:23.587Z,45.85
2017-11-01T19:35:51.168Z,52.03
2017-11-01T19:38:18.753Z,49.42
2017-11-01T19:40:46.397Z,46.83
2017-11-01T19:43:13.977Z,51.63
2017-11-01T19:45:41.562Z,58.67
2017-11-01T19:48:09.932Z,48.78
2017-11-01T19:50:38.281Z,52.03
2017-11-01T19:53:05.922Z,50.97
2017-11-01T19:55:33.505Z,46.05
2017-11-01T19:58:01.102Z,50.25
2017-11-01T20:00:28.709Z,54.20
2017-11-01T20:02:56.285Z,43.25
2017-11-01T20:05:23.866Z,57.88
2017-11-01T20:07:52.283Z,41.05
2017-11-01T20:10:19.874Z,45.38
2017-11-01T20:12:47.451Z,46.88
2017-11-01T20:15:15.073Z,56.67
2017-11-01T20:17:42.662Z,49.13
2017-11-01T20:20:10.297Z,54.50
2017-11-01T20:22:38.695Z,47.80
2017-11-01T20:25:06.279Z,50.55
2017-11-01T20:27:34.628Z,46.72
2017-11-01T20:30:02.239Z,50.92
2017-11-01T20:32:29.827Z,43.90
2017-11-01T20:34:57.410Z,54.05
2017-11-01T20:37:25.075Z,56.67
2017-11-01T20:39:52.662Z,42.78
2017-11-01T20:42:20.295Z,42.60
2017-11-01T20:44:47.881Z,48.53
2017-11-01T20:47:15.471Z,42.90
2017-11-01T20:49:43.077Z,49.05
2017-11-01T20:52:11.425Z,45.47
2017-11-01T20:54:39.774Z,48.90
2017-11-01T20:57:07.401Z,45.30
2017-11-01T20:59:35.751Z,49.72
2017-11-01T21:02:03.338Z,52.65
2017-11-01T21:04:31.706Z,44.42
2017-11-01T21:07:00.056Z,46.15
2017-11-01T21:09:27.701Z,55.00
2017-11-01T21:11:55.278Z,44.40
2017-11-01T21:14:22.860Z,52.13
2017-11-01T21:16:51.266Z,46.33
2017-11-01T21:19:18.846Z,49.42
2017-11-01T21:21:46.421Z,39.15
2017-11-01T21:24:14.027Z,39.25
2017-11-01T21:26:42.374Z,48.47
2017-11-01T21:29:10.002Z,40.97
2017-11-01T21:31:37.578Z,46.58
2017-11-01T21:34:05.162Z,39.90
2017-11-01T21:36:32.798Z,45.33
2017-11-01T21:39:00.373Z,39.63
2017-11-01T21:41:27.953Z,42.08
2017-11-01T21:43:56.355Z,35.20
2017-11-01T21:46:23.931Z,39.40
2017-11-01T21:48:51.510Z,49.90
2017-11-01T21:51:19.137Z,49.35
2017-11-01T21:53:46.717Z,35.20
2017-11-01T21:56:14.298Z,47.75
2017-11-01T21:58:41.954Z,32.65
2017-11-01T22:01:09.534Z,38.90
2017-11-01T22:03:37.887Z,37.92
2017-11-01T22:06:05.530Z,36.17
2017-11-01T22:08:33.110Z,40.80
2017-11-01T22:11:00.690Z,37.05
2017-11-01T22:13:29.078Z,37.33
2017-11-01T22:15:56.670Z,39.17
2017-11-01T22:18:24.251Z,37.30
2017-11-01T22:20:51.866Z,34.08
2017-11-01T22:23:19.445Z,37.45
2017-11-01T22:25:47.027Z,40.42
2017-11-01T22:28:14.646Z,42.03
2017-11-01T22:30:42.226Z,40.53
2017-11-01T22:33:09.802Z,47.67
2017-11-01T22:35:38.182Z,46.37
2017-11-01T22:38:05.762Z,36.25
2017-11-01T22:40:33.342Z,37.25
2017-11-01T22:43:01.737Z,36.10
2017-11-01T22:45:29.319Z,32.22
2017-11-01T22:47:56.904Z,35.70
2017-11-01T22:50:24.514Z,38.40
2017-11-01T22:52:52.095Z,41.83
2017-11-01T22:55:19.674Z,39.47
2017-11-01T22:57:47.302Z,34.08
2017-11-01T23:00:14.886Z,34.10
2017-11-01T23:02:42.461Z,33.47
2017-11-01T23:05:10.098Z,44.33
2017-11-01T23:07:37.679Z,47.65
2017-11-01T23:10:05.262Z,31.30
2017-11-01T23:12:33.630Z,33.33
2017-11-01T23:15:01.210Z,33.60
2017-11-01T23:17:28.786Z,25.98
2017-11-01T23:19:56.434Z,27.83
2017-11-01T23:22:24.018Z,24.58
2017-11-01T23:24:51.603Z,26.77
2017-11-01T23:27:19.206Z,20.23
2017-11-01T23:29:46.781Z,25.10
